sensor_id;sensor_type;location;lat;lon;timestamp;pressure;altitude;pressure_sealevel;temperature;humidity
50790;BME280;37287;47.554;7.844;2023-01-27T00:01:07;98000.72;;;-2.10;100.00
50790;BME280;37287;47.554;7.844;2023-01-27T00:03:34;97999.06;;;-2.06;100.00
50790;BME280;37287;47.554;7.844;2023-01-27T00:06:00;97992.94;;;-2.07;100.00
50790;BME280;37287;47.554;7.844;2023-01-27T00:08:29;98001.19;;;-2.08;100.00
50790;BME280;37287;47.554;7.844;2023-01-27T00:10:57;97998.06;;;-2.10;100.00
50790;BME280;37287;47.554;7.844;2023-01-27T00:13:44;97997.63;;;-2.17;100.00
50790;BME280;37287;47.554;7.844;2023-01-27T00:16:11;97991.75;;;-2.14;100.00
50790;BME280;37287;47.554;7.844;2023-01-27T00:18:37;97986.16;;;-2.13;100.00
50790;BME280;37287;47.554;7.844;2023-01-27T00:21:05;97986.44;;;-2.14;100.00
50790;BME280;37287;47.554;7.844;2023-01-27T00:23:50;97982.78;;;-2.18;100.00
50790;BME280;37287;47.554;7.844;2023-01-27T00:26:40;97982.84;;;-2.23;100.00
50790;BME280;37287;47.554;7.844;2023-01-27T00:29:08;97980.22;;;-2.23;100.00
50790;BME280;37287;47.554;7.844;2023-01-27T00:31:35;97976.78;;;-2.24;100.00
50790;BME280;37287;47.554;7.844;2023-01-27T00:34:23;97987.09;;;-2.22;100.00
50790;BME280;37287;47.554;7.844;2023-01-27T00:36:51;97981.31;;;-2.25;100.00
50790;BME280;37287;47.554;7.844;2023-01-27T00:39:18;97985.25;;;-2.22;100.00
50790;BME280;37287;47.554;7.844;2023-01-27T00:41:45;97972.25;;;-2.23;100.00
50790;BME280;37287;47.554;7.844;2023-01-27T00:44:11;97975.72;;;-2.23;100.00
50790;BME280;37287;47.554;7.844;2023-01-27T00:46:39;97977.50;;;-2.18;100.00
50790;BME280;37287;47.554;7.844;2023-01-27T00:49:06;97975.41;;;-2.21;100.00
50790;BME280;37287;47.554;7.844;2023-01-27T00:51:33;97966.41;;;-2.20;100.00
50790;BME280;37287;47.554;7.844;2023-01-27T00:53:59;97970.13;;;-2.21;100.00
50790;BME280;37287;47.554;7.844;2023-01-27T00:56:30;97972.00;;;-2.22;100.00
50790;BME280;37287;47.554;7.844;2023-01-27T00:58:58;97970.69;;;-2.25;100.00
50790;BME280;37287;47.554;7.844;2023-01-27T01:01:25;97958.50;;;-2.26;100.00
50790;BME280;37287;47.554;7.844;2023-01-27T01:03:54;97968.34;;;-2.26;100.00
50790;BME280;37287;47.554;7.844;2023-01-27T01:06:21;97960.16;;;-2.30;100.00
50790;BME280;37287;47.554;7.844;2023-01-27T01:08:48;97972.84;;;-2.27;100.00
50790;BME280;37287;47.554;7.844;2023-01-27T01:11:16;97971.47;;;-2.24;100.00
50790;BME280;37287;47.554;7.844;2023-01-27T01:13:43;97970.91;;;-2.21;100.00
50790;BME280;37287;47.554;7.844;2023-01-27T01:16:13;97964.81;;;-2.21;100.00
50790;BME280;37287;47.554;7.844;2023-01-27T01:18:42;97982.38;;;-2.26;100.00
50790;BME280;37287;47.554;7.844;2023-01-27T01:21:11;97974.19;;;-2.29;100.00
50790;BME280;37287;47.554;7.844;2023-01-27T01:23:41;97978.72;;;-2.30;100.00
50790;BME280;37287;47.554;7.844;2023-01-27T01:26:11;97980.50;;;-2.25;100.00
50790;BME280;37287;47.554;7.844;2023-01-27T01:28:38;97977.06;;;-2.26;100.00
50790;BME280;37287;47.554;7.844;2023-01-27T01:31:09;97977.06;;;-2.26;100.00
50790;BME280;37287;47.554;7.844;2023-01-27T01:33:36;97972.84;;;-2.27;100.00
50790;BME280;37287;47.554;7.844;2023-01-27T01:36:05;97972.94;;;-2.32;100.00
50790;BME280;37287;47.554;7.844;2023-01-27T01:38:31;97973.19;;;-2.33;100.00
50790;BME280;37287;47.554;7.844;2023-01-27T01:41:00;97970.28;;;-2.32;100.00
50790;BME280;37287;47.554;7.844;2023-01-27T01:43:28;97963.97;;;-2.36;100.00
50790;BME280;37287;47.554;7.844;2023-01-27T01:45:59;97960.03;;;-2.38;100.00
50790;BME280;37287;47.554;7.844;2023-01-27T01:48:35;97967.69;;;-2.37;100.00
50790;BME280;37287;47.554;7.844;2023-01-27T01:51:08;97964.53;;;-2.39;100.00
50790;BME280;37287;47.554;7.844;2023-01-27T01:56:15;97956.09;;;-2.41;100.00
50790;BME280;37287;47.554;7.844;2023-01-27T01:58:43;97957.44;;;-2.44;100.00
50790;BME280;37287;47.554;7.844;2023-01-27T02:01:12;97944.19;;;-2.44;100.00
50790;BME280;37287;47.554;7.844;2023-01-27T02:03:41;97956.09;;;-2.41;100.00
50790;BME280;37287;47.554;7.844;2023-01-27T02:06:12;97947.34;;;-2.42;100.00
50790;BME280;37287;47.554;7.844;2023-01-27T02:08:41;97944.19;;;-2.44;100.00
50790;BME280;37287;47.554;7.844;2023-01-27T02:11:09;97935.47;;;-2.44;100.00
50790;BME280;37287;47.554;7.844;2023-01-27T02:13:40;97938.09;;;-2.44;100.00
50790;BME280;37287;47.554;7.844;2023-01-27T02:16:09;97945.84;;;-2.48;100.00
50790;BME280;37287;47.554;7.844;2023-01-27T02:18:38;97944.00;;;-2.47;100.00
50790;BME280;37287;47.554;7.844;2023-01-27T02:21:05;97934.16;;;-2.47;100.00
50790;BME280;37287;47.554;7.844;2023-01-27T02:28:37;97938.16;;;-2.49;100.00
50790;BME280;37287;47.554;7.844;2023-01-27T02:31:04;97930.81;;;-2.52;100.00
50790;BME280;37287;47.554;7.844;2023-01-27T02:33:32;97932.16;;;-2.55;100.00
50790;BME280;37287;47.554;7.844;2023-01-27T02:36:11;97930.22;;;-2.49;100.00
50790;BME280;37287;47.554;7.844;2023-01-27T02:38:46;97937.59;;;-2.46;100.00
50790;BME280;37287;47.554;7.844;2023-01-27T02:43:45;97929.16;;;-2.48;100.00
50790;BME280;37287;47.554;7.844;2023-01-27T02:46:12;97919.63;;;-2.49;100.00
50790;BME280;37287;47.554;7.844;2023-01-27T02:48:39;97926.28;;;-2.52;100.00
50790;BME280;37287;47.554;7.844;2023-01-27T02:51:06;97929.72;;;-2.51;100.00
50790;BME280;37287;47.554;7.844;2023-01-27T02:53:33;97915.38;;;-2.50;100.00
50790;BME280;37287;47.554;7.844;2023-01-27T02:56:01;97916.47;;;-2.51;100.00
50790;BME280;37287;47.554;7.844;2023-01-27T02:58:28;97929.50;;;-2.55;100.00
50790;BME280;37287;47.554;7.844;2023-01-27T03:00:54;97919.72;;;-2.54;100.00
50790;BME280;37287;47.554;7.844;2023-01-27T03:03:25;97914.41;;;-2.54;100.00
50790;BME280;37287;47.554;7.844;2023-01-27T03:05:52;97921.56;;;-2.55;100.00
50790;BME280;37287;47.554;7.844;2023-01-27T03:08:19;97921.84;;;-2.56;100.00
50790;BME280;37287;47.554;7.844;2023-01-27T03:10:50;97916.84;;;-2.58;100.00
50790;BME280;37287;47.554;7.844;2023-01-27T03:13:21;97918.72;;;-2.58;100.00
50790;BME280;37287;47.554;7.844;2023-01-27T03:15:48;97915.75;;;-2.57;100.00
50790;BME280;37287;47.554;7.844;2023-01-27T03:18:34;97924.00;;;-2.58;100.00
50790;BME280;37287;47.554;7.844;2023-01-27T03:21:04;97927.16;;;-2.56;100.00
50790;BME280;37287;47.554;7.844;2023-01-27T03:23:32;97933.50;;;-2.57;100.00
50790;BME280;37287;47.554;7.844;2023-01-27T03:26:02;97933.22;;;-2.56;100.00
50790;BME280;37287;47.554;7.844;2023-01-27T03:28:32;97936.16;;;-2.57;100.00
50790;BME280;37287;47.554;7.844;2023-01-27T03:33:32;97931.97;;;-2.58;100.00
50790;BME280;37287;47.554;7.844;2023-01-27T03:36:02;97943.34;;;-2.58;100.00
50790;BME280;37287;47.554;7.844;2023-01-27T03:38:48;97939.34;;;-2.55;100.00
50790;BME280;37287;47.554;7.844;2023-01-27T03:41:33;97938.53;;;-2.56;100.00
50790;BME280;37287;47.554;7.844;2023-01-27T03:44:18;97931.66;;;-2.57;100.00
50790;BME280;37287;47.554;7.844;2023-01-27T03:47:04;97934.03;;;-2.55;100.00
50790;BME280;37287;47.554;7.844;2023-01-27T03:49:30;97935.63;;;-2.54;100.00
50790;BME280;37287;47.554;7.844;2023-01-27T03:51:57;97935.63;;;-2.54;100.00
50790;BME280;37287;47.554;7.844;2023-01-27T03:54:24;97924.72;;;-2.53;100.00
50790;BME280;37287;47.554;7.844;2023-01-27T03:56:50;97930.31;;;-2.54;100.00
50790;BME280;37287;47.554;7.844;2023-01-27T03:59:17;97931.88;;;-2.53;100.00
50790;BME280;37287;47.554;7.844;2023-01-27T04:01:47;97933.75;;;-2.54;100.00
50790;BME280;37287;47.554;7.844;2023-01-27T04:04:15;97923.44;;;-2.55;100.00
50790;BME280;37287;47.554;7.844;2023-01-27T04:07:01;97918.91;;;-2.55;100.00
50790;BME280;37287;47.554;7.844;2023-01-27T04:09:33;97926.56;;;-2.53;100.00
50790;BME280;37287;47.554;7.844;2023-01-27T04:12:03;97930.31;;;-2.54;100.00
50790;BME280;37287;47.554;7.844;2023-01-27T04:14:38;97935.31;;;-2.53;100.00
50790;BME280;37287;47.554;7.844;2023-01-27T04:17:15;97933.75;;;-2.54;100.00
50790;BME280;37287;47.554;7.844;2023-01-27T04:19:45;97940.91;;;-2.54;100.00
50790;BME280;37287;47.554;7.844;2023-01-27T04:22:13;97942.47;;;-2.53;100.00
50790;BME280;37287;47.554;7.844;2023-01-27T04:24:41;97944.34;;;-2.54;100.00
50790;BME280;37287;47.554;7.844;2023-01-27T04:27:12;97935.63;;;-2.54;100.00
50790;BME280;37287;47.554;7.844;2023-01-27T04:29:40;97933.44;;;-2.52;100.00
50790;BME280;37287;47.554;7.844;2023-01-27T04:32:08;97945.63;;;-2.51;100.00
50790;BME280;37287;47.554;7.844;2023-01-27T04:34:40;97936.88;;;-2.52;100.00
50790;BME280;37287;47.554;7.844;2023-01-27T04:37:07;97939.75;;;-2.48;100.00
50790;BME280;37287;47.554;7.844;2023-01-27T04:39:34;97942.13;;;-2.47;100.00
50790;BME280;37287;47.554;7.844;2023-01-27T04:42:03;97936.03;;;-2.47;100.00
50790;BME280;37287;47.554;7.844;2023-01-27T04:44:31;97934.94;;;-2.46;100.00
50790;BME280;37287;47.554;7.844;2023-01-27T04:46:58;97942.88;;;-2.46;100.00
50790;BME280;37287;47.554;7.844;2023-01-27T04:49:25;97944.47;;;-2.45;100.00
50790;BME280;37287;47.554;7.844;2023-01-27T04:51:53;97945.84;;;-2.48;100.00
50790;BME280;37287;47.554;7.844;2023-01-27T04:54:19;97946.13;;;-2.49;100.00
50790;BME280;37287;47.554;7.844;2023-01-27T04:56:59;97939.25;;;-2.50;100.00
50790;BME280;37287;47.554;7.844;2023-01-27T04:59:26;97936.31;;;-2.49;100.00
50790;BME280;37287;47.554;7.844;2023-01-27T05:01:54;97937.09;;;-2.48;100.00
50790;BME280;37287;47.554;7.844;2023-01-27T05:04:21;97941.34;;;-2.47;100.00
50790;BME280;37287;47.554;7.844;2023-01-27T05:06:48;97932.56;;;-2.48;100.00
50790;BME280;37287;47.554;7.844;2023-01-27T05:09:16;97943.19;;;-2.48;100.00
50790;BME280;37287;47.554;7.844;2023-01-27T05:11:43;97939.75;;;-2.48;100.00
50790;BME280;37287;47.554;7.844;2023-01-27T05:14:09;97942.13;;;-2.47;100.00
50790;BME280;37287;47.554;7.844;2023-01-27T05:16:37;97936.81;;;-2.47;100.00
50790;BME280;37287;47.554;7.844;2023-01-27T05:19:04;97936.81;;;-2.47;100.00
50790;BME280;37287;47.554;7.844;2023-01-27T05:21:32;97933.88;;;-2.45;100.00
50790;BME280;37287;47.554;7.844;2023-01-27T05:24:00;97936.22;;;-2.44;100.00
50790;BME280;37287;47.554;7.844;2023-01-27T05:26:27;97933.28;;;-2.42;100.00
50790;BME280;37287;47.554;7.844;2023-01-27T05:28:56;97942.06;;;-2.42;100.00
50790;BME280;37287;47.554;7.844;2023-01-27T05:31:28;97940.94;;;-2.40;100.00
50790;BME280;37287;47.554;7.844;2023-01-27T05:33:58;97939.59;;;-2.38;100.00
50790;BME280;37287;47.554;7.844;2023-01-27T05:36:27;97945.97;;;-2.39;100.00
50790;BME280;37287;47.554;7.844;2023-01-27T05:38:54;97940.47;;;-2.43;100.00
50790;BME280;37287;47.554;7.844;2023-01-27T05:41:21;97945.47;;;-2.41;100.00
50790;BME280;37287;47.554;7.844;2023-01-27T05:43:53;97933.81;;;-2.40;100.00
50790;BME280;37287;47.554;7.844;2023-01-27T05:46:22;97929.84;;;-2.43;100.00
50790;BME280;37287;47.554;7.844;2023-01-27T05:48:53;97934.66;;;-2.45;100.00
50790;BME280;37287;47.554;7.844;2023-01-27T05:51:22;97937.81;;;-2.43;100.00
50790;BME280;37287;47.554;7.844;2023-01-27T05:53:49;97930.63;;;-2.42;100.00
50790;BME280;37287;47.554;7.844;2023-01-27T05:56:17;97943.91;;;-2.42;100.00
50790;BME280;37287;47.554;7.844;2023-01-27T05:58:45;97950.00;;;-2.42;100.00
50790;BME280;37287;47.554;7.844;2023-01-27T06:03:42;97956.56;;;-2.39;100.00
50790;BME280;37287;47.554;7.844;2023-01-27T06:06:10;97960.03;;;-2.38;100.00
50790;BME280;37287;47.554;7.844;2023-01-27T06:08:37;97961.88;;;-2.39;100.00
50790;BME280;37287;47.554;7.844;2023-01-27T06:11:06;97968.28;;;-2.40;100.00
50790;BME280;37287;47.554;7.844;2023-01-27T06:13:33;97959.81;;;-2.42;100.00
50790;BME280;37287;47.554;7.844;2023-01-27T06:16:07;97959.81;;;-2.42;100.00
50790;BME280;37287;47.554;7.844;2023-01-27T06:18:34;97959.50;;;-2.40;100.00
50790;BME280;37287;47.554;7.844;2023-01-27T06:21:03;97968.75;;;-2.38;100.00
50790;BME280;37287;47.554;7.844;2023-01-27T06:23:30;97966.09;;;-2.38;100.00
50790;BME280;37287;47.554;7.844;2023-01-27T06:26:10;97966.41;;;-2.39;100.00
50790;BME280;37287;47.554;7.844;2023-01-27T06:28:37;97959.22;;;-2.39;100.00
50790;BME280;37287;47.554;7.844;2023-01-27T06:31:11;97956.56;;;-2.39;100.00
50790;BME280;37287;47.554;7.844;2023-01-27T06:33:38;97960.31;;;-2.40;100.00
50790;BME280;37287;47.554;7.844;2023-01-27T06:36:07;97955.50;;;-2.38;100.00
50790;BME280;37287;47.554;7.844;2023-01-27T06:38:36;97960.81;;;-2.38;100.00
50790;BME280;37287;47.554;7.844;2023-01-27T06:41:04;97962.38;;;-2.37;100.00
50790;BME280;37287;47.554;7.844;2023-01-27T06:43:31;97966.91;;;-2.37;100.00
50790;BME280;37287;47.554;7.844;2023-01-27T06:46:01;97975.34;;;-2.35;100.00
50790;BME280;37287;47.554;7.844;2023-01-27T06:48:31;97975.06;;;-2.34;100.00
50790;BME280;37287;47.554;7.844;2023-01-27T06:50:58;97977.72;;;-2.34;100.00
50790;BME280;37287;47.554;7.844;2023-01-27T06:53:26;97960.22;;;-2.35;100.00
50790;BME280;37287;47.554;7.844;2023-01-27T06:55:55;97959.94;;;-2.33;100.00
50790;BME280;37287;47.554;7.844;2023-01-27T06:58:21;97974.00;;;-2.33;100.00
50790;BME280;37287;47.554;7.844;2023-01-27T07:00:50;97973.72;;;-2.31;100.00
50790;BME280;37287;47.554;7.844;2023-01-27T07:03:17;97971.06;;;-2.31;100.00
50790;BME280;37287;47.554;7.844;2023-01-27T07:05:44;97970.53;;;-2.33;100.00
50790;BME280;37287;47.554;7.844;2023-01-27T07:08:11;97978.78;;;-2.35;100.00
50790;BME280;37287;47.554;7.844;2023-01-27T07:10:37;97976.13;;;-2.35;100.00
50790;BME280;37287;47.554;7.844;2023-01-27T07:15:43;97975.50;;;-2.27;100.00
50790;BME280;37287;47.554;7.844;2023-01-27T07:18:11;97990.81;;;-2.23;100.00
50790;BME280;37287;47.554;7.844;2023-01-27T07:20:41;97987.16;;;-2.28;100.00
50790;BME280;37287;47.554;7.844;2023-01-27T07:23:09;97990.34;;;-2.26;100.00
50790;BME280;37287;47.554;7.844;2023-01-27T07:25:36;97987.16;;;-2.28;100.00
50790;BME280;37287;47.554;7.844;2023-01-27T07:28:03;97988.75;;;-2.27;100.00
50790;BME280;37287;47.554;7.844;2023-01-27T07:30:30;97989.25;;;-2.25;100.00
50790;BME280;37287;47.554;7.844;2023-01-27T07:33:03;98000.34;;;-2.22;100.00
50790;BME280;37287;47.554;7.844;2023-01-27T07:35:30;98004.31;;;-2.20;100.00
50790;BME280;37287;47.554;7.844;2023-01-27T07:37:57;97996.34;;;-2.20;100.00
50790;BME280;37287;47.554;7.844;2023-01-27T07:40:24;98000.59;;;-2.19;100.00
50790;BME280;37287;47.554;7.844;2023-01-27T07:42:51;98002.13;;;-2.18;100.00
50790;BME280;37287;47.554;7.844;2023-01-27T07:45:17;98012.19;;;-2.15;100.00
50790;BME280;37287;47.554;7.844;2023-01-27T07:47:44;98008.44;;;-2.14;100.00
50790;BME280;37287;47.554;7.844;2023-01-27T07:50:10;98010.81;;;-2.12;100.00
50790;BME280;37287;47.554;7.844;2023-01-27T07:52:38;98006.59;;;-2.13;100.00
50790;BME280;37287;47.554;7.844;2023-01-27T07:55:05;98013.97;;;-2.10;100.00
50790;BME280;37287;47.554;7.844;2023-01-27T07:57:33;98017.13;;;-2.08;100.00
50790;BME280;37287;47.554;7.844;2023-01-27T08:00:04;98032.75;;;-2.07;100.00
50790;BME280;37287;47.554;7.844;2023-01-27T08:02:31;98024.78;;;-2.07;100.00
50790;BME280;37287;47.554;7.844;2023-01-27T08:04:57;98025.59;;;-2.06;100.00
50790;BME280;37287;47.554;7.844;2023-01-27T08:07:24;98024.22;;;-2.03;100.00
50790;BME280;37287;47.554;7.844;2023-01-27T08:09:53;98030.03;;;-2.01;100.00
50790;BME280;37287;47.554;7.844;2023-01-27T08:12:25;98026.06;;;-2.04;100.00
50790;BME280;37287;47.554;7.844;2023-01-27T08:14:52;98022.94;;;-2.06;100.00
50790;BME280;37287;47.554;7.844;2023-01-27T08:17:18;98028.94;;;-2.00;100.00
50790;BME280;37287;47.554;7.844;2023-01-27T08:19:46;98029.16;;;-1.97;100.00
50790;BME280;37287;47.554;7.844;2023-01-27T08:22:15;98030.53;;;-1.99;100.00
50790;BME280;37287;47.554;7.844;2023-01-27T08:24:48;98038.22;;;-1.98;100.00
50790;BME280;37287;47.554;7.844;2023-01-27T08:27:19;98033.69;;;-1.97;100.00
50790;BME280;37287;47.554;7.844;2023-01-27T08:29:49;98036.03;;;-1.96;100.00
50790;BME280;37287;47.554;7.844;2023-01-27T08:32:16;98037.34;;;-1.93;100.00
50790;BME280;37287;47.554;7.844;2023-01-27T08:34:44;98038.63;;;-1.91;100.00
50790;BME280;37287;47.554;7.844;2023-01-27T08:37:11;98030.66;;;-1.91;100.00
50790;BME280;37287;47.554;7.844;2023-01-27T08:39:38;98041.00;;;-1.89;100.00
50790;BME280;37287;47.554;7.844;2023-01-27T08:42:06;98044.41;;;-1.88;100.00
50790;BME280;37287;47.554;7.844;2023-01-27T08:44:35;98039.03;;;-1.83;100.00
50790;BME280;37287;47.554;7.844;2023-01-27T08:47:01;98033.16;;;-1.80;100.00
50790;BME280;37287;47.554;7.844;2023-01-27T08:49:28;98041.59;;;-1.78;100.00
50790;BME280;37287;47.554;7.844;2023-01-27T08:51:55;98041.22;;;-1.71;100.00
50790;BME280;37287;47.554;7.844;2023-01-27T08:54:21;98050.72;;;-1.65;100.00
50790;BME280;37287;47.554;7.844;2023-01-27T08:56:48;98053.63;;;-1.67;100.00
50790;BME280;37287;47.554;7.844;2023-01-27T08:59:15;98059.44;;;-1.65;100.00
50790;BME280;37287;47.554;7.844;2023-01-27T09:01:42;98061.50;;;-1.62;100.00
50790;BME280;37287;47.554;7.844;2023-01-27T09:04:10;98060.22;;;-1.64;100.00
50790;BME280;37287;47.554;7.844;2023-01-27T09:06:38;98060.22;;;-1.64;100.00
50790;BME280;37287;47.554;7.844;2023-01-27T09:09:05;98068.13;;;-1.59;100.00
50790;BME280;37287;47.554;7.844;2023-01-27T09:11:39;98069.41;;;-1.57;100.00
50790;BME280;37287;47.554;7.844;2023-01-27T09:14:06;98063.88;;;-1.60;100.00
50790;BME280;37287;47.554;7.844;2023-01-27T09:16:33;98068.41;;;-1.61;100.00
50790;BME280;37287;47.554;7.844;2023-01-27T09:19:02;98067.03;;;-1.58;100.00
50790;BME280;37287;47.554;7.844;2023-01-27T09:21:29;98065.66;;;-1.56;100.00
50790;BME280;37287;47.554;7.844;2023-01-27T09:23:56;98064.69;;;-1.60;100.00
50790;BME280;37287;47.554;7.844;2023-01-27T09:26:24;98056.13;;;-1.57;100.00
50790;BME280;37287;47.554;7.844;2023-01-27T09:28:51;98064.00;;;-1.51;100.00
50790;BME280;37287;47.554;7.844;2023-01-27T09:31:18;98061.34;;;-1.51;100.00
50790;BME280;37287;47.554;7.844;2023-01-27T09:33:49;98051.59;;;-1.56;100.00
50790;BME280;37287;47.554;7.844;2023-01-27T09:36:18;98066.66;;;-1.51;100.00
50790;BME280;37287;47.554;7.844;2023-01-27T09:38:50;98063.94;;;-1.46;100.00
50790;BME280;37287;47.554;7.844;2023-01-27T09:41:42;98072.59;;;-1.41;100.00
50790;BME280;37287;47.554;7.844;2023-01-27T09:44:37;98071.00;;;-1.42;100.00
50790;BME280;37287;47.554;7.844;2023-01-27T10:06:28;98073.25;;;-1.16;100.00
50790;BME280;37287;47.554;7.844;2023-01-27T10:15:00;98078.16;;;-1.09;100.00
50790;BME280;37287;47.554;7.844;2023-01-27T10:23:26;98062.22;;;-1.09;100.00
50790;BME280;37287;47.554;7.844;2023-01-27T10:26:20;98060.16;;;-1.12;100.00
50790;BME280;37287;47.554;7.844;2023-01-27T10:28:58;98068.13;;;-1.12;100.00
50790;BME280;37287;47.554;7.844;2023-01-27T10:31:35;98063.59;;;-0.98;100.00
50790;BME280;37287;47.554;7.844;2023-01-27T10:34:35;98071.19;;;-0.91;100.00
50790;BME280;37287;47.554;7.844;2023-01-27T10:38:01;98063.59;;;-0.84;100.00
50790;BME280;37287;47.554;7.844;2023-01-27T10:51:27;98056.72;;;-0.71;100.00
50790;BME280;37287;47.554;7.844;2023-01-27T10:56:47;98048.41;;;-0.56;100.00
50790;BME280;37287;47.554;7.844;2023-01-27T10:59:27;98054.63;;;-0.46;100.00
50790;BME280;37287;47.554;7.844;2023-01-27T11:07:06;98042.88;;;-0.45;100.00
50790;BME280;37287;47.554;7.844;2023-01-27T11:09:35;98038.25;;;-0.40;100.00
50790;BME280;37287;47.554;7.844;2023-01-27T11:12:07;98031.78;;;-0.47;100.00
50790;BME280;37287;47.554;7.844;2023-01-27T11:14:45;98046.44;;;-0.50;100.00
50790;BME280;37287;47.554;7.844;2023-01-27T11:17:21;98048.31;;;-0.50;100.00
50790;BME280;37287;47.554;7.844;2023-01-27T11:23:00;98044.03;;;-0.24;100.00
50790;BME280;37287;47.554;7.844;2023-01-27T11:28:30;98038.72;;;-0.24;100.00
50790;BME280;37287;47.554;7.844;2023-01-27T11:36:45;98047.97;;;-0.21;100.00
50790;BME280;37287;47.554;7.844;2023-01-27T11:39:19;98046.56;;;-0.19;100.00
50790;BME280;37287;47.554;7.844;2023-01-27T11:41:54;98049.53;;;-0.20;100.00
50790;BME280;37287;47.554;7.844;2023-01-27T11:44:31;98043.91;;;-0.19;100.00
50790;BME280;37287;47.554;7.844;2023-01-27T11:47:01;98056.75;;;-0.21;100.00
50790;BME280;37287;47.554;7.844;2023-01-27T11:49:34;98057.22;;;-0.19;100.00
50790;BME280;37287;47.554;7.844;2023-01-27T11:52:13;98053.69;;;-0.14;100.00
50790;BME280;37287;47.554;7.844;2023-01-27T11:54:51;98055.13;;;-0.08;100.00
50790;BME280;37287;47.554;7.844;2023-01-27T11:57:22;98044.47;;;-0.08;100.00
50790;BME280;37287;47.554;7.844;2023-01-27T12:00:00;98034.31;;;-0.06;100.00
50790;BME280;37287;47.554;7.844;2023-01-27T12:02:36;98040.22;;;-0.09;100.00
50790;BME280;37287;47.554;7.844;2023-01-27T12:05:08;98028.13;;;-0.15;100.00
50790;BME280;37287;47.554;7.844;2023-01-27T12:07:57;98029.63;;;-0.23;100.00
50790;BME280;37287;47.554;7.844;2023-01-27T12:10:38;98021.56;;;-0.31;100.00
50790;BME280;37287;47.554;7.844;2023-01-27T12:13:20;98030.94;;;-0.34;100.00
50790;BME280;37287;47.554;7.844;2023-01-27T12:15:55;98023.69;;;-0.42;100.00
50790;BME280;37287;47.554;7.844;2023-01-27T12:18:26;98027.44;;;-0.43;100.00
50790;BME280;37287;47.554;7.844;2023-01-27T12:21:04;98029.00;;;-0.42;100.00
50790;BME280;37287;47.554;7.844;2023-01-27T12:23:35;98026.53;;;-0.39;100.00
50790;BME280;37287;47.554;7.844;2023-01-27T12:26:09;98021.09;;;-0.33;100.00
50790;BME280;37287;47.554;7.844;2023-01-27T12:28:49;98020.69;;;-0.27;100.00
50790;BME280;37287;47.554;7.844;2023-01-27T12:31:27;98014.84;;;-0.15;100.00
50790;BME280;37287;47.554;7.844;2023-01-27T12:34:03;98011.69;;;-0.17;100.00
50790;BME280;37287;47.554;7.844;2023-01-27T12:36:42;98007.16;;;-0.16;100.00
50790;BME280;37287;47.554;7.844;2023-01-27T12:39:41;97997.47;;;-0.12;100.00
50790;BME280;37287;47.554;7.844;2023-01-27T12:45:24;97997.13;;;0.03;100.00
50790;BME280;37287;47.554;7.844;2023-01-27T12:48:00;97999.47;;;0.05;100.00
50790;BME280;37287;47.554;7.844;2023-01-27T12:50:30;97998.09;;;0.07;100.00
50790;BME280;37287;47.554;7.844;2023-01-27T12:55:38;98002.19;;;0.13;100.00
50790;BME280;37287;47.554;7.844;2023-01-27T12:58:27;98001.13;;;0.14;100.00
50790;BME280;37287;47.554;7.844;2023-01-27T13:00:54;98005.94;;;0.12;98.82
50790;BME280;37287;47.554;7.844;2023-01-27T13:03:25;97992.28;;;0.05;95.88
50790;BME280;37287;47.554;7.844;2023-01-27T13:05:54;98008.25;;;0.05;95.87
50790;BME280;37287;47.554;7.844;2023-01-27T13:08:24;98006.84;;;0.08;96.39
50790;BME280;37287;47.554;7.844;2023-01-27T13:10:55;98014.06;;;0.07;94.28
50790;BME280;37287;47.554;7.844;2023-01-27T13:13:24;98018.47;;;0.12;95.45
50790;BME280;37287;47.554;7.844;2023-01-27T13:16:22;98027.38;;;0.07;92.95
50790;BME280;37287;47.554;7.844;2023-01-27T13:18:53;98032.09;;;0.10;95.06
50790;BME280;37287;47.554;7.844;2023-01-27T13:21:24;98025.81;;;0.06;93.59
50790;BME280;37287;47.554;7.844;2023-01-27T13:23:52;98032.19;;;0.05;93.63
50790;BME280;37287;47.554;7.844;2023-01-27T13:26:28;98033.28;;;0.04;92.40
50790;BME280;37287;47.554;7.844;2023-01-27T13:31:55;98030.75;;;-0.01;88.93
50790;BME280;37287;47.554;7.844;2023-01-27T13:34:44;98026.81;;;-0.04;87.46
50790;BME280;37287;47.554;7.844;2023-01-27T13:37:19;98024.06;;;0.02;92.15
50790;BME280;37287;47.554;7.844;2023-01-27T13:40:02;98041.41;;;-0.01;91.00
50790;BME280;37287;47.554;7.844;2023-01-27T13:42:37;98034.03;;;-0.04;88.11
50790;BME280;37287;47.554;7.844;2023-01-27T13:45:15;98034.59;;;-0.07;87.84
50790;BME280;37287;47.554;7.844;2023-01-27T13:52:56;98032.44;;;-0.05;88.58
50790;BME280;37287;47.554;7.844;2023-01-27T13:58:57;98027.50;;;0.02;88.24
50790;BME280;37287;47.554;7.844;2023-01-27T14:07:25;98032.34;;;0.00;87.72
50790;BME280;37287;47.554;7.844;2023-01-27T14:10:15;98034.50;;;-0.02;87.25
50790;BME280;37287;47.554;7.844;2023-01-27T14:20:48;98046.13;;;0.02;90.78
50790;BME280;37287;47.554;7.844;2023-01-27T14:23:45;98031.72;;;0.03;89.89
50790;BME280;37287;47.554;7.844;2023-01-27T14:32:05;98041.41;;;-0.01;85.83
50790;BME280;37287;47.554;7.844;2023-01-27T14:37:34;98042.44;;;0.12;90.71
50790;BME280;37287;47.554;7.844;2023-01-27T14:45:52;98043.22;;;0.12;85.96
50790;BME280;37287;47.554;7.844;2023-01-27T14:48:39;98052.00;;;0.13;85.16
50790;BME280;37287;47.554;7.844;2023-01-27T14:51:13;98058.09;;;0.13;84.41
50790;BME280;37287;47.554;7.844;2023-01-27T14:59:01;98062.28;;;0.06;85.44
50790;BME280;37287;47.554;7.844;2023-01-27T15:01:55;98060.72;;;0.05;85.15
50790;BME280;37287;47.554;7.844;2023-01-27T15:04:34;98050.84;;;0.05;85.09
50790;BME280;37287;47.554;7.844;2023-01-27T15:07:20;98071.97;;;0.02;84.41
50790;BME280;37287;47.554;7.844;2023-01-27T15:10:24;98066.44;;;-0.02;85.16
50790;BME280;37287;47.554;7.844;2023-01-27T15:16:01;98079.38;;;-0.09;86.22
50790;BME280;37287;47.554;7.844;2023-01-27T15:24:32;98077.78;;;-0.10;86.36
50790;BME280;37287;47.554;7.844;2023-01-27T15:27:03;98080.47;;;-0.10;87.04
50790;BME280;37287;47.554;7.844;2023-01-27T15:29:36;98076.81;;;-0.14;86.99
50790;BME280;37287;47.554;7.844;2023-01-27T15:34:50;98087.59;;;-0.20;86.46
50790;BME280;37287;47.554;7.844;2023-01-27T15:37:23;98089.75;;;-0.22;87.25